sensor_id;sensor_type;location;lat;lon;timestamp;temperature;humidity
41058;DHT22;66768;48.884;2.258;2024-02-28T00:00:09;8.20;99.90
41058;DHT22;66768;48.884;2.258;2024-02-28T00:02:37;8.10;99.90
41058;DHT22;66768;48.884;2.258;2024-02-28T00:05:04;8.20;99.90
41058;DHT22;66768;48.884;2.258;2024-02-28T00:07:31;8.10;99.90
41058;DHT22;66768;48.884;2.258;2024-02-28T00:09:58;8.30;99.90
41058;DHT22;66768;48.884;2.258;2024-02-28T00:12:25;8.10;99.90
41058;DHT22;66768;48.884;2.258;2024-02-28T00:14:52;8.10;99.90
41058;DHT22;66768;48.884;2.258;2024-02-28T00:17:21;8.20;99.90
41058;DHT22;66768;48.884;2.258;2024-02-28T00:19:48;8.20;99.90
41058;DHT22;66768;48.884;2.258;2024-02-28T00:22:15;8.10;99.90
41058;DHT22;66768;48.884;2.258;2024-02-28T00:24:42;8.10;99.90
41058;DHT22;66768;48.884;2.258;2024-02-28T00:27:08;8.10;99.90
41058;DHT22;66768;48.884;2.258;2024-02-28T00:29:35;8.10;99.90
41058;DHT22;66768;48.884;2.258;2024-02-28T00:32:02;8.10;99.90
41058;DHT22;66768;48.884;2.258;2024-02-28T00:34:30;8.10;99.90
41058;DHT22;66768;48.884;2.258;2024-02-28T00:36:57;8.10;99.90
41058;DHT22;66768;48.884;2.258;2024-02-28T00:39:24;8.10;99.90
41058;DHT22;66768;48.884;2.258;2024-02-28T00:41:53;8.10;99.90
41058;DHT22;66768;48.884;2.258;2024-02-28T00:44:22;8.10;99.90
41058;DHT22;66768;48.884;2.258;2024-02-28T00:46:49;8.10;99.90
41058;DHT22;66768;48.884;2.258;2024-02-28T00:49:15;8.10;99.90
41058;DHT22;66768;48.884;2.258;2024-02-28T00:51:45;8.10;99.90
41058;DHT22;66768;48.884;2.258;2024-02-28T00:54:12;8.10;99.90
41058;DHT22;66768;48.884;2.258;2024-02-28T00:56:39;8.10;99.90
41058;DHT22;66768;48.884;2.258;2024-02-28T00:59:08;8.10;99.90
41058;DHT22;66768;48.884;2.258;2024-02-28T01:01:36;8.00;99.90
41058;DHT22;66768;48.884;2.258;2024-02-28T01:04:03;8.00;99.90
41058;DHT22;66768;48.884;2.258;2024-02-28T01:06:31;8.00;99.90
41058;DHT22;66768;48.884;2.258;2024-02-28T01:08:59;8.00;99.90
41058;DHT22;66768;48.884;2.258;2024-02-28T01:11:26;8.00;99.90
41058;DHT22;66768;48.884;2.258;2024-02-28T01:13:53;8.00;99.90
41058;DHT22;66768;48.884;2.258;2024-02-28T01:16:20;8.00;99.90
41058;DHT22;66768;48.884;2.258;2024-02-28T01:18:47;8.00;99.90
41058;DHT22;66768;48.884;2.258;2024-02-28T01:21:14;8.00;99.90
41058;DHT22;66768;48.884;2.258;2024-02-28T01:23:40;7.90;99.90
41058;DHT22;66768;48.884;2.258;2024-02-28T01:26:09;7.90;99.90
41058;DHT22;66768;48.884;2.258;2024-02-28T01:28:35;7.90;99.90
41058;DHT22;66768;48.884;2.258;2024-02-28T01:31:03;7.90;99.90
41058;DHT22;66768;48.884;2.258;2024-02-28T01:33:31;7.90;99.90
41058;DHT22;66768;48.884;2.258;2024-02-28T01:35:58;8.00;99.90
41058;DHT22;66768;48.884;2.258;2024-02-28T01:38:25;8.00;99.90
41058;DHT22;66768;48.884;2.258;2024-02-28T01:40:52;7.90;99.90
41058;DHT22;66768;48.884;2.258;2024-02-28T01:43:20;7.90;99.90
41058;DHT22;66768;48.884;2.258;2024-02-28T01:45:47;7.90;99.90
41058;DHT22;66768;48.884;2.258;2024-02-28T01:48:14;7.90;99.90
41058;DHT22;66768;48.884;2.258;2024-02-28T01:50:41;7.90;99.90
41058;DHT22;66768;48.884;2.258;2024-02-28T01:53:09;8.00;99.90
41058;DHT22;66768;48.884;2.258;2024-02-28T01:55:37;7.90;99.90
41058;DHT22;66768;48.884;2.258;2024-02-28T01:58:04;7.90;99.90
41058;DHT22;66768;48.884;2.258;2024-02-28T02:00:37;7.80;99.90
41058;DHT22;66768;48.884;2.258;2024-02-28T02:03:04;7.80;99.90
41058;DHT22;66768;48.884;2.258;2024-02-28T02:05:31;7.80;99.90
41058;DHT22;66768;48.884;2.258;2024-02-28T02:07:58;7.70;99.90
41058;DHT22;66768;48.884;2.258;2024-02-28T02:10:26;7.80;99.90
41058;DHT22;66768;48.884;2.258;2024-02-28T02:13:03;7.80;99.90
41058;DHT22;66768;48.884;2.258;2024-02-28T02:15:30;7.80;99.90
41058;DHT22;66768;48.884;2.258;2024-02-28T02:17:58;7.70;99.90
41058;DHT22;66768;48.884;2.258;2024-02-28T02:20:26;7.70;99.90
41058;DHT22;66768;48.884;2.258;2024-02-28T02:22:54;7.70;99.90
41058;DHT22;66768;48.884;2.258;2024-02-28T02:25:21;7.70;99.90
41058;DHT22;66768;48.884;2.258;2024-02-28T02:27:48;7.60;99.90
41058;DHT22;66768;48.884;2.258;2024-02-28T02:30:15;7.60;99.90
41058;DHT22;66768;48.884;2.258;2024-02-28T02:32:43;7.60;99.90
41058;DHT22;66768;48.884;2.258;2024-02-28T02:35:10;7.60;99.90
41058;DHT22;66768;48.884;2.258;2024-02-28T02:37:37;7.50;99.90
41058;DHT22;66768;48.884;2.258;2024-02-28T02:40:06;7.50;99.90
41058;DHT22;66768;48.884;2.258;2024-02-28T02:42:35;7.60;99.90
41058;DHT22;66768;48.884;2.258;2024-02-28T02:45:02;8.70;99.90
41058;DHT22;66768;48.884;2.258;2024-02-28T02:47:29;7.50;99.90
41058;DHT22;66768;48.884;2.258;2024-02-28T02:49:56;7.50;99.90
41058;DHT22;66768;48.884;2.258;2024-02-28T02:52:24;7.50;99.90
41058;DHT22;66768;48.884;2.258;2024-02-28T02:54:51;7.40;99.90
41058;DHT22;66768;48.884;2.258;2024-02-28T02:57:20;7.40;99.90
41058;DHT22;66768;48.884;2.258;2024-02-28T02:59:50;7.50;99.90
41058;DHT22;66768;48.884;2.258;2024-02-28T03:02:20;7.50;99.90
41058;DHT22;66768;48.884;2.258;2024-02-28T03:04:47;7.50;99.90
41058;DHT22;66768;48.884;2.258;2024-02-28T03:07:14;7.40;99.90
41058;DHT22;66768;48.884;2.258;2024-02-28T03:09:44;7.40;99.90
41058;DHT22;66768;48.884;2.258;2024-02-28T03:12:10;7.40;99.90
41058;DHT22;66768;48.884;2.258;2024-02-28T03:14:40;7.30;99.90
41058;DHT22;66768;48.884;2.258;2024-02-28T03:17:07;7.40;99.90
41058;DHT22;66768;48.884;2.258;2024-02-28T03:19:34;7.40;99.90
41058;DHT22;66768;48.884;2.258;2024-02-28T03:22:01;7.30;99.90
41058;DHT22;66768;48.884;2.258;2024-02-28T03:24:28;7.30;99.90
41058;DHT22;66768;48.884;2.258;2024-02-28T03:26:55;7.30;99.90
41058;DHT22;66768;48.884;2.258;2024-02-28T03:29:22;7.30;99.90
41058;DHT22;66768;48.884;2.258;2024-02-28T03:31:50;7.20;99.90
41058;DHT22;66768;48.884;2.258;2024-02-28T03:34:17;7.30;99.90
41058;DHT22;66768;48.884;2.258;2024-02-28T03:36:44;7.30;99.90
41058;DHT22;66768;48.884;2.258;2024-02-28T03:39:11;7.30;99.90
41058;DHT22;66768;48.884;2.258;2024-02-28T03:41:38;7.30;99.90
41058;DHT22;66768;48.884;2.258;2024-02-28T03:44:05;7.30;99.90
41058;DHT22;66768;48.884;2.258;2024-02-28T03:46:33;7.40;99.90
41058;DHT22;66768;48.884;2.258;2024-02-28T03:49:01;7.30;99.90
41058;DHT22;66768;48.884;2.258;2024-02-28T03:51:28;7.30;99.90
41058;DHT22;66768;48.884;2.258;2024-02-28T03:53:57;7.30;99.90
41058;DHT22;66768;48.884;2.258;2024-02-28T03:56:26;7.30;99.90
41058;DHT22;66768;48.884;2.258;2024-02-28T03:58:55;7.20;99.90
41058;DHT22;66768;48.884;2.258;2024-02-28T04:01:22;7.20;99.90
41058;DHT22;66768;48.884;2.258;2024-02-28T04:03:49;7.20;99.90
41058;DHT22;66768;48.884;2.258;2024-02-28T04:06:17;7.20;99.90
41058;DHT22;66768;48.884;2.258;2024-02-28T04:08:44;7.20;99.90
41058;DHT22;66768;48.884;2.258;2024-02-28T04:11:11;7.20;99.90
41058;DHT22;66768;48.884;2.258;2024-02-28T04:13:38;7.20;99.90
41058;DHT22;66768;48.884;2.258;2024-02-28T04:16:05;7.20;99.90
41058;DHT22;66768;48.884;2.258;2024-02-28T04:18:32;7.20;99.90
41058;DHT22;66768;48.884;2.258;2024-02-28T04:20:59;7.20;99.90
41058;DHT22;66768;48.884;2.258;2024-02-28T04:23:27;7.20;99.90
41058;DHT22;66768;48.884;2.258;2024-02-28T04:25:54;7.20;99.90
41058;DHT22;66768;48.884;2.258;2024-02-28T04:28:21;7.10;99.90
41058;DHT22;66768;48.884;2.258;2024-02-28T04:30:52;7.10;99.90
41058;DHT22;66768;48.884;2.258;2024-02-28T04:33:19;7.10;99.90
41058;DHT22;66768;48.884;2.258;2024-02-28T04:35:46;7.20;99.90
41058;DHT22;66768;48.884;2.258;2024-02-28T04:38:13;8.20;99.90
41058;DHT22;66768;48.884;2.258;2024-02-28T04:40:45;7.10;99.90
41058;DHT22;66768;48.884;2.258;2024-02-28T04:43:12;7.10;99.90
41058;DHT22;66768;48.884;2.258;2024-02-28T04:45:38;7.10;99.90
41058;DHT22;66768;48.884;2.258;2024-02-28T04:48:06;7.10;99.90
41058;DHT22;66768;48.884;2.258;2024-02-28T04:50:33;7.10;99.90
41058;DHT22;66768;48.884;2.258;2024-02-28T04:53:00;7.10;99.90
41058;DHT22;66768;48.884;2.258;2024-02-28T04:55:27;7.10;99.90
41058;DHT22;66768;48.884;2.258;2024-02-28T04:57:55;7.00;99.90
41058;DHT22;66768;48.884;2.258;2024-02-28T05:00:24;7.10;99.90
41058;DHT22;66768;48.884;2.258;2024-02-28T05:02:51;7.10;99.90
41058;DHT22;66768;48.884;2.258;2024-02-28T05:05:20;7.00;99.90
41058;DHT22;66768;48.884;2.258;2024-02-28T05:07:47;7.00;99.90
41058;DHT22;66768;48.884;2.258;2024-02-28T05:10:14;7.00;99.90
41058;DHT22;66768;48.884;2.258;2024-02-28T05:12:41;7.00;99.90
41058;DHT22;66768;48.884;2.258;2024-02-28T05:15:10;6.90;99.90
41058;DHT22;66768;48.884;2.258;2024-02-28T05:17:38;6.90;99.90
41058;DHT22;66768;48.884;2.258;2024-02-28T05:20:06;6.90;99.90
41058;DHT22;66768;48.884;2.258;2024-02-28T05:22:33;6.80;99.90
41058;DHT22;66768;48.884;2.258;2024-02-28T05:25:00;6.80;99.90
41058;DHT22;66768;48.884;2.258;2024-02-28T05:27:27;6.80;99.90
41058;DHT22;66768;48.884;2.258;2024-02-28T05:29:54;6.80;99.90
41058;DHT22;66768;48.884;2.258;2024-02-28T05:32:21;6.80;99.90
41058;DHT22;66768;48.884;2.258;2024-02-28T05:34:48;6.70;99.90
41058;DHT22;66768;48.884;2.258;2024-02-28T05:37:16;6.70;99.90
41058;DHT22;66768;48.884;2.258;2024-02-28T05:39:44;6.70;99.90
41058;DHT22;66768;48.884;2.258;2024-02-28T05:42:10;6.80;99.90
41058;DHT22;66768;48.884;2.258;2024-02-28T05:44:37;6.80;99.90
41058;DHT22;66768;48.884;2.258;2024-02-28T05:47:04;6.80;99.90
41058;DHT22;66768;48.884;2.258;2024-02-28T05:49:33;6.80;99.90
41058;DHT22;66768;48.884;2.258;2024-02-28T05:52:00;6.90;99.90
41058;DHT22;66768;48.884;2.258;2024-02-28T05:54:26;6.90;99.90
41058;DHT22;66768;48.884;2.258;2024-02-28T05:56:53;6.80;99.90
41058;DHT22;66768;48.884;2.258;2024-02-28T05:59:20;6.80;99.90
41058;DHT22;66768;48.884;2.258;2024-02-28T06:01:47;6.80;99.90
41058;DHT22;66768;48.884;2.258;2024-02-28T06:04:14;6.80;99.90
41058;DHT22;66768;48.884;2.258;2024-02-28T06:06:42;6.70;99.90
41058;DHT22;66768;48.884;2.258;2024-02-28T06:09:09;6.80;99.90
41058;DHT22;66768;48.884;2.258;2024-02-28T06:11:37;6.80;99.90
41058;DHT22;66768;48.884;2.258;2024-02-28T06:14:03;6.80;99.90
41058;DHT22;66768;48.884;2.258;2024-02-28T06:16:30;6.80;99.90
41058;DHT22;66768;48.884;2.258;2024-02-28T06:19:00;6.80;99.90
41058;DHT22;66768;48.884;2.258;2024-02-28T06:21:27;6.90;99.90
41058;DHT22;66768;48.884;2.258;2024-02-28T06:23:56;6.80;99.90
41058;DHT22;66768;48.884;2.258;2024-02-28T06:26:25;6.80;99.90
41058;DHT22;66768;48.884;2.258;2024-02-28T06:28:52;6.90;99.90
41058;DHT22;66768;48.884;2.258;2024-02-28T06:31:19;6.90;99.90
41058;DHT22;66768;48.884;2.258;2024-02-28T06:33:46;6.90;99.90
41058;DHT22;66768;48.884;2.258;2024-02-28T06:36:13;6.90;99.90
41058;DHT22;66768;48.884;2.258;2024-02-28T06:38:40;7.00;99.90
41058;DHT22;66768;48.884;2.258;2024-02-28T06:41:08;7.00;99.90
41058;DHT22;66768;48.884;2.258;2024-02-28T06:43:35;7.00;99.90
41058;DHT22;66768;48.884;2.258;2024-02-28T06:46:02;7.00;99.90
41058;DHT22;66768;48.884;2.258;2024-02-28T06:48:30;6.90;99.90
41058;DHT22;66768;48.884;2.258;2024-02-28T06:50:57;7.00;99.90
41058;DHT22;66768;48.884;2.258;2024-02-28T06:53:24;7.10;99.90
41058;DHT22;66768;48.884;2.258;2024-02-28T06:55:51;7.00;99.90
41058;DHT22;66768;48.884;2.258;2024-02-28T06:58:20;6.90;99.90
41058;DHT22;66768;48.884;2.258;2024-02-28T07:00:47;7.00;99.90
41058;DHT22;66768;48.884;2.258;2024-02-28T07:03:14;7.00;99.90
41058;DHT22;66768;48.884;2.258;2024-02-28T07:05:41;7.10;99.90
41058;DHT22;66768;48.884;2.258;2024-02-28T07:08:08;7.10;99.90
41058;DHT22;66768;48.884;2.258;2024-02-28T07:10:36;7.10;99.90
41058;DHT22;66768;48.884;2.258;2024-02-28T07:13:04;7.10;99.90
41058;DHT22;66768;48.884;2.258;2024-02-28T07:15:33;7.10;99.90
41058;DHT22;66768;48.884;2.258;2024-02-28T07:17:59;7.20;99.90
41058;DHT22;66768;48.884;2.258;2024-02-28T07:20:26;7.30;99.90
41058;DHT22;66768;48.884;2.258;2024-02-28T07:22:53;7.20;99.90
41058;DHT22;66768;48.884;2.258;2024-02-28T07:25:20;7.30;99.90
41058;DHT22;66768;48.884;2.258;2024-02-28T07:27:47;7.20;99.90
41058;DHT22;66768;48.884;2.258;2024-02-28T07:30:14;7.30;99.90
41058;DHT22;66768;48.884;2.258;2024-02-28T07:32:42;7.20;99.90
41058;DHT22;66768;48.884;2.258;2024-02-28T07:35:09;7.30;99.90
41058;DHT22;66768;48.884;2.258;2024-02-28T07:37:36;7.30;99.90
41058;DHT22;66768;48.884;2.258;2024-02-28T07:40:04;7.30;99.90
41058;DHT22;66768;48.884;2.258;2024-02-28T07:42:31;7.50;99.90
41058;DHT22;66768;48.884;2.258;2024-02-28T07:44:57;7.40;99.90
41058;DHT22;66768;48.884;2.258;2024-02-28T07:47:24;7.40;99.90
41058;DHT22;66768;48.884;2.258;2024-02-28T07:49:52;7.40;99.90
41058;DHT22;66768;48.884;2.258;2024-02-28T07:52:20;7.40;99.90
41058;DHT22;66768;48.884;2.258;2024-02-28T07:54:46;7.50;99.90
41058;DHT22;66768;48.884;2.258;2024-02-28T07:57:14;7.60;99.90
41058;DHT22;66768;48.884;2.258;2024-02-28T07:59:42;7.60;99.90
41058;DHT22;66768;48.884;2.258;2024-02-28T08:02:09;7.60;99.90
41058;DHT22;66768;48.884;2.258;2024-02-28T08:04:37;7.60;99.90
41058;DHT22;66768;48.884;2.258;2024-02-28T08:07:05;7.70;99.90
41058;DHT22;66768;48.884;2.258;2024-02-28T08:09:32;7.80;99.90
41058;DHT22;66768;48.884;2.258;2024-02-28T08:11:59;7.80;99.90
41058;DHT22;66768;48.884;2.258;2024-02-28T08:14:27;7.90;99.90
41058;DHT22;66768;48.884;2.258;2024-02-28T08:16:54;7.90;99.90
41058;DHT22;66768;48.884;2.258;2024-02-28T08:19:20;8.00;99.90
41058;DHT22;66768;48.884;2.258;2024-02-28T08:21:46;8.10;99.90
41058;DHT22;66768;48.884;2.258;2024-02-28T08:24:14;8.10;99.90
41058;DHT22;66768;48.884;2.258;2024-02-28T08:26:41;8.20;99.90
41058;DHT22;66768;48.884;2.258;2024-02-28T08:29:08;8.20;99.90
41058;DHT22;66768;48.884;2.258;2024-02-28T08:31:40;8.30;99.90
41058;DHT22;66768;48.884;2.258;2024-02-28T08:34:07;8.30;99.90
41058;DHT22;66768;48.884;2.258;2024-02-28T08:36:35;8.40;99.90
41058;DHT22;66768;48.884;2.258;2024-02-28T08:39:02;8.50;99.90
41058;DHT22;66768;48.884;2.258;2024-02-28T08:41:33;8.50;99.90
41058;DHT22;66768;48.884;2.258;2024-02-28T08:44:00;8.50;99.90
41058;DHT22;66768;48.884;2.258;2024-02-28T08:46:27;8.50;99.90
41058;DHT22;66768;48.884;2.258;2024-02-28T08:48:54;8.70;99.90
41058;DHT22;66768;48.884;2.258;2024-02-28T08:51:21;8.70;99.90
41058;DHT22;66768;48.884;2.258;2024-02-28T08:53:48;8.70;99.90
41058;DHT22;66768;48.884;2.258;2024-02-28T08:56:15;8.80;99.90
41058;DHT22;66768;48.884;2.258;2024-02-28T08:58:43;8.90;99.90
41058;DHT22;66768;48.884;2.258;2024-02-28T09:01:13;9.00;99.90
41058;DHT22;66768;48.884;2.258;2024-02-28T09:03:41;9.00;99.90
41058;DHT22;66768;48.884;2.258;2024-02-28T09:06:08;9.00;99.90
41058;DHT22;66768;48.884;2.258;2024-02-28T09:08:35;9.00;99.90
41058;DHT22;66768;48.884;2.258;2024-02-28T09:11:02;9.10;99.90
41058;DHT22;66768;48.884;2.258;2024-02-28T09:13:30;9.10;99.90
41058;DHT22;66768;48.884;2.258;2024-02-28T09:15:58;9.10;99.90
41058;DHT22;66768;48.884;2.258;2024-02-28T09:18:24;9.20;99.90
41058;DHT22;66768;48.884;2.258;2024-02-28T09:20:51;9.20;99.90
41058;DHT22;66768;48.884;2.258;2024-02-28T09:23:18;9.20;99.90
41058;DHT22;66768;48.884;2.258;2024-02-28T09:25:45;9.20;99.90
41058;DHT22;66768;48.884;2.258;2024-02-28T09:28:12;9.20;99.90
41058;DHT22;66768;48.884;2.258;2024-02-28T09:30:41;9.20;99.90
41058;DHT22;66768;48.884;2.258;2024-02-28T09:33:09;9.20;99.90
41058;DHT22;66768;48.884;2.258;2024-02-28T09:35:37;9.30;99.90
41058;DHT22;66768;48.884;2.258;2024-02-28T09:38:04;9.30;99.90
41058;DHT22;66768;48.884;2.258;2024-02-28T09:40:31;9.30;99.90
41058;DHT22;66768;48.884;2.258;2024-02-28T09:43:01;9.40;99.90
41058;DHT22;66768;48.884;2.258;2024-02-28T09:45:29;9.40;99.90
41058;DHT22;66768;48.884;2.258;2024-02-28T09:47:58;9.40;99.90
41058;DHT22;66768;48.884;2.258;2024-02-28T09:50:27;9.50;99.90
41058;DHT22;66768;48.884;2.258;2024-02-28T09:52:54;9.50;99.90
41058;DHT22;66768;48.884;2.258;2024-02-28T09:55:21;9.50;99.90
41058;DHT22;66768;48.884;2.258;2024-02-28T09:57:48;9.50;99.90
41058;DHT22;66768;48.884;2.258;2024-02-28T10:00:19;9.60;99.90
41058;DHT22;66768;48.884;2.258;2024-02-28T10:02:47;9.60;99.90
41058;DHT22;66768;48.884;2.258;2024-02-28T10:05:15;9.70;99.90
41058;DHT22;66768;48.884;2.258;2024-02-28T10:07:45;9.70;99.90
41058;DHT22;66768;48.884;2.258;2024-02-28T10:10:12;9.80;99.90
41058;DHT22;66768;48.884;2.258;2024-02-28T10:12:41;9.90;99.90
41058;DHT22;66768;48.884;2.258;2024-02-28T10:15:10;10.00;99.90
41058;DHT22;66768;48.884;2.258;2024-02-28T10:17:37;10.00;99.90
41058;DHT22;66768;48.884;2.258;2024-02-28T10:20:04;10.00;99.90
41058;DHT22;66768;48.884;2.258;2024-02-28T10:22:34;10.10;99.90
41058;DHT22;66768;48.884;2.258;2024-02-28T10:25:03;10.10;99.90
41058;DHT22;66768;48.884;2.258;2024-02-28T10:27:32;10.20;99.90
41058;DHT22;66768;48.884;2.258;2024-02-28T10:29:59;10.30;99.90
41058;DHT22;66768;48.884;2.258;2024-02-28T10:32:27;10.30;99.90
41058;DHT22;66768;48.884;2.258;2024-02-28T10:34:54;10.40;99.90
41058;DHT22;66768;48.884;2.258;2024-02-28T10:37:21;10.40;99.90
41058;DHT22;66768;48.884;2.258;2024-02-28T10:39:49;10.40;99.90
41058;DHT22;66768;48.884;2.258;2024-02-28T10:42:20;10.40;99.90
41058;DHT22;66768;48.884;2.258;2024-02-28T10:44:50;10.50;99.90
41058;DHT22;66768;48.884;2.258;2024-02-28T10:47:18;10.50;99.90
41058;DHT22;66768;48.884;2.258;2024-02-28T10:49:44;10.50;99.90
41058;DHT22;66768;48.884;2.258;2024-02-28T10:52:11;10.60;99.90
41058;DHT22;66768;48.884;2.258;2024-02-28T10:54:40;10.60;99.90
41058;DHT22;66768;48.884;2.258;2024-02-28T10:57:12;10.60;99.90
41058;DHT22;66768;48.884;2.258;2024-02-28T10:59:40;10.70;99.90
41058;DHT22;66768;48.884;2.258;2024-02-28T11:02:09;10.70;99.90
41058;DHT22;66768;48.884;2.258;2024-02-28T11:04:36;10.70;99.90
41058;DHT22;66768;48.884;2.258;2024-02-28T11:07:03;10.80;99.90
41058;DHT22;66768;48.884;2.258;2024-02-28T11:09:34;10.80;99.90
41058;DHT22;66768;48.884;2.258;2024-02-28T11:12:03;10.80;99.90
41058;DHT22;66768;48.884;2.258;2024-02-28T11:14:30;10.80;99.90
41058;DHT22;66768;48.884;2.258;2024-02-28T11:17:03;10.80;99.90
41058;DHT22;66768;48.884;2.258;2024-02-28T11:19:30;10.80;99.90
41058;DHT22;66768;48.884;2.258;2024-02-28T11:21:58;10.80;99.90
41058;DHT22;66768;48.884;2.258;2024-02-28T11:24:29;10.80;99.90
41058;DHT22;66768;48.884;2.258;2024-02-28T11:26:57;10.80;99.90
41058;DHT22;66768;48.884;2.258;2024-02-28T11:29:25;10.90;99.90
41058;DHT22;66768;48.884;2.258;2024-02-28T11:31:52;10.80;99.90
41058;DHT22;66768;48.884;2.258;2024-02-28T11:34:21;10.80;99.90
41058;DHT22;66768;48.884;2.258;2024-02-28T11:36:48;10.80;99.90
41058;DHT22;66768;48.884;2.258;2024-02-28T11:39:16;10.80;99.90
41058;DHT22;66768;48.884;2.258;2024-02-28T11:41:43;10.80;99.90
41058;DHT22;66768;48.884;2.258;2024-02-28T11:44:12;10.80;99.90
41058;DHT22;66768;48.884;2.258;2024-02-28T11:46:43;10.80;99.90
41058;DHT22;66768;48.884;2.258;2024-02-28T11:49:11;10.80;99.90
41058;DHT22;66768;48.884;2.258;2024-02-28T11:51:40;10.80;99.90
41058;DHT22;66768;48.884;2.258;2024-02-28T11:54:07;10.80;99.90
41058;DHT22;66768;48.884;2.258;2024-02-28T11:56:35;10.70;99.90
41058;DHT22;66768;48.884;2.258;2024-02-28T11:59:02;10.80;99.90
41058;DHT22;66768;48.884;2.258;2024-02-28T12:01:37;10.80;99.90
41058;DHT22;66768;48.884;2.258;2024-02-28T12:04:05;10.80;99.90
41058;DHT22;66768;48.884;2.258;2024-02-28T12:06:33;10.70;99.90
41058;DHT22;66768;48.884;2.258;2024-02-28T12:09:02;10.80;99.90
41058;DHT22;66768;48.884;2.258;2024-02-28T12:11:30;10.80;99.90
41058;DHT22;66768;48.884;2.258;2024-02-28T12:13:57;10.70;99.90
41058;DHT22;66768;48.884;2.258;2024-02-28T12:16:24;10.80;99.90
41058;DHT22;66768;48.884;2.258;2024-02-28T12:18:53;10.80;99.90
41058;DHT22;66768;48.884;2.258;2024-02-28T12:21:20;10.90;99.90
41058;DHT22;66768;48.884;2.258;2024-02-28T12:23:47;10.90;99.90
41058;DHT22;66768;48.884;2.258;2024-02-28T12:26:16;10.90;99.90
41058;DHT22;66768;48.884;2.258;2024-02-28T12:28:44;11.00;99.90
41058;DHT22;66768;48.884;2.258;2024-02-28T12:31:10;11.00;99.90
41058;DHT22;66768;48.884;2.258;2024-02-28T12:33:38;11.00;99.90
41058;DHT22;66768;48.884;2.258;2024-02-28T12:36:06;11.00;99.90
41058;DHT22;66768;48.884;2.258;2024-02-28T12:38:33;11.10;99.90
41058;DHT22;66768;48.884;2.258;2024-02-28T12:41:00;11.10;99.90
41058;DHT22;66768;48.884;2.258;2024-02-28T12:43:29;11.10;99.90
41058;DHT22;66768;48.884;2.258;2024-02-28T12:45:56;11.10;99.90
41058;DHT22;66768;48.884;2.258;2024-02-28T12:48:23;11.10;99.90
41058;DHT22;66768;48.884;2.258;2024-02-28T12:50:50;11.10;99.90
41058;DHT22;66768;48.884;2.258;2024-02-28T12:53:17;11.20;99.90
41058;DHT22;66768;48.884;2.258;2024-02-28T12:55:44;11.20;99.90
41058;DHT22;66768;48.884;2.258;2024-02-28T12:58:11;11.10;99.90
41058;DHT22;66768;48.884;2.258;2024-02-28T13:00:39;11.20;99.90
41058;DHT22;66768;48.884;2.258;2024-02-28T13:03:06;11.30;99.90
41058;DHT22;66768;48.884;2.258;2024-02-28T13:05:33;11.30;99.90
41058;DHT22;66768;48.884;2.258;2024-02-28T13:07:59;11.40;99.90
41058;DHT22;66768;48.884;2.258;2024-02-28T13:10:26;11.40;99.90
41058;DHT22;66768;48.884;2.258;2024-02-28T13:12:53;11.50;99.90
41058;DHT22;66768;48.884;2.258;2024-02-28T13:15:20;11.50;99.90
41058;DHT22;66768;48.884;2.258;2024-02-28T13:17:48;11.60;99.90
41058;DHT22;66768;48.884;2.258;2024-02-28T13:20:16;11.60;99.90
41058;DHT22;66768;48.884;2.258;2024-02-28T13:22:42;11.60;99.90
41058;DHT22;66768;48.884;2.258;2024-02-28T13:25:10;11.60;99.90
41058;DHT22;66768;48.884;2.258;2024-02-28T13:27:39;11.60;99.90
41058;DHT22;66768;48.884;2.258;2024-02-28T13:30:07;11.60;99.90
41058;DHT22;66768;48.884;2.258;2024-02-28T13:32:34;11.60;99.90
41058;DHT22;66768;48.884;2.258;2024-02-28T13:35:02;11.60;99.90
41058;DHT22;66768;48.884;2.258;2024-02-28T13:37:29;11.70;99.90
41058;DHT22;66768;48.884;2.258;2024-02-28T13:39:58;11.70;99.90
41058;DHT22;66768;48.884;2.258;2024-02-28T13:42:25;11.70;99.90
41058;DHT22;66768;48.884;2.258;2024-02-28T13:44:51;11.80;99.90
41058;DHT22;66768;48.884;2.258;2024-02-28T13:47:18;11.80;99.90
41058;DHT22;66768;48.884;2.258;2024-02-28T13:49:45;11.80;99.90
41058;DHT22;66768;48.884;2.258;2024-02-28T13:52:14;11.80;99.90
41058;DHT22;66768;48.884;2.258;2024-02-28T13:54:41;11.80;99.90
41058;DHT22;66768;48.884;2.258;2024-02-28T13:57:07;11.80;99.90
41058;DHT22;66768;48.884;2.258;2024-02-28T13:59:34;11.80;99.90
41058;DHT22;66768;48.884;2.258;2024-02-28T14:02:01;11.80;99.90
41058;DHT22;66768;48.884;2.258;2024-02-28T14:04:28;11.80;99.90
41058;DHT22;66768;48.884;2.258;2024-02-28T14:06:55;11.90;99.90
41058;DHT22;66768;48.884;2.258;2024-02-28T14:09:23;11.90;99.90
41058;DHT22;66768;48.884;2.258;2024-02-28T14:11:50;11.90;99.90
41058;DHT22;66768;48.884;2.258;2024-02-28T14:14:17;11.90;99.90
41058;DHT22;66768;48.884;2.258;2024-02-28T14:16:44;11.90;99.90
41058;DHT22;66768;48.884;2.258;2024-02-28T14:19:10;11.90;99.90
41058;DHT22;66768;48.884;2.258;2024-02-28T14:21:37;11.90;99.90
41058;DHT22;66768;48.884;2.258;2024-02-28T14:24:05;11.90;99.90
41058;DHT22;66768;48.884;2.258;2024-02-28T14:26:33;11.90;99.90
41058;DHT22;66768;48.884;2.258;2024-02-28T14:29:00;11.90;99.90
41058;DHT22;66768;48.884;2.258;2024-02-28T14:31:26;11.90;99.90
41058;DHT22;66768;48.884;2.258;2024-02-28T14:33:53;11.90;99.90
41058;DHT22;66768;48.884;2.258;2024-02-28T14:36:20;11.90;99.90
41058;DHT22;66768;48.884;2.258;2024-02-28T14:38:47;11.90;99.90
41058;DHT22;66768;48.884;2.258;2024-02-28T14:41:14;11.90;99.90
41058;DHT22;66768;48.884;2.258;2024-02-28T14:43:42;11.90;99.90
41058;DHT22;66768;48.884;2.258;2024-02-28T14:46:09;11.90;99.90
41058;DHT22;66768;48.884;2.258;2024-02-28T14:48:37;11.90;99.90
41058;DHT22;66768;48.884;2.258;2024-02-28T14:51:04;11.90;99.90
41058;DHT22;66768;48.884;2.258;2024-02-28T14:53:32;11.90;99.90
41058;DHT22;66768;48.884;2.258;2024-02-28T14:55:58;11.90;99.90
41058;DHT22;66768;48.884;2.258;2024-02-28T14:58:25;11.80;99.90
41058;DHT22;66768;48.884;2.258;2024-02-28T15:00:53;11.90;99.90
41058;DHT22;66768;48.884;2.258;2024-02-28T15:03:23;11.90;99.90
41058;DHT22;66768;48.884;2.258;2024-02-28T15:05:51;11.90;99.90
41058;DHT22;66768;48.884;2.258;2024-02-28T15:08:17;11.80;99.90
41058;DHT22;66768;48.884;2.258;2024-02-28T15:10:44;11.90;99.90
41058;DHT22;66768;48.884;2.258;2024-02-28T15:13:11;11.90;99.90
41058;DHT22;66768;48.884;2.258;2024-02-28T15:15:38;11.90;99.90
41058;DHT22;66768;48.884;2.258;2024-02-28T15:18:06;11.80;99.90
41058;DHT22;66768;48.884;2.258;2024-02-28T15:20:33;11.80;99.90
41058;DHT22;66768;48.884;2.258;2024-02-28T15:23:00;11.90;99.90
41058;DHT22;66768;48.884;2.258;2024-02-28T15:25:26;11.90;99.90
41058;DHT22;66768;48.884;2.258;2024-02-28T15:27:53;11.90;99.90
41058;DHT22;66768;48.884;2.258;2024-02-28T15:30:20;11.90;99.90
41058;DHT22;66768;48.884;2.258;2024-02-28T15:32:47;11.90;99.90
41058;DHT22;66768;48.884;2.258;2024-02-28T15:35:15;11.90;99.90
41058;DHT22;66768;48.884;2.258;2024-02-28T15:37:42;11.90;99.90
41058;DHT22;66768;48.884;2.258;2024-02-28T15:40:10;11.90;99.90